IBB87NF GCXO-GCHI
Flight info
| Callsign | IBB87NF |
|---|---|
| Flight time | 0h 30m |
| Altitude | 10000 |
| Route | HIE |
| Aircraft | AT76/M-SDFGRY/LB1 |
Departure
| Time | 2026-05-01 07:26 |
|---|---|
| Airport | Tenerife Norte-Ciudad de La Laguna Airport (GCXO) |
Arrival
| Time | 2026-05-01 07:56 |
|---|---|
| Airport | El Hierro Airport (GCHI) |
| Time | Latitude | Longitude | Altitude | Speed | Heading |
|---|---|---|---|---|---|
| 2026-05-01 07:23 | 28.48048 | -16.33150 | 2023 ft | 20 kts | 110° |
| 2026-05-01 07:23 | 28.47951 | -16.32855 | 2012 ft | 20 kts | 111° |
| 2026-05-01 07:24 | 28.47903 | -16.32712 | 2012 ft | 19 kts | 111° |
| 2026-05-01 07:24 | 28.47847 | -16.32580 | 2010 ft | 18 kts | 143° |
| 2026-05-01 07:24 | 28.47756 | -16.32533 | 2009 ft | 12 kts | 202° |
| 2026-05-01 07:24 | 28.47747 | -16.32587 | 2013 ft | 5 kts | 290° |
| 2026-05-01 07:25 | 28.47816 | -16.32797 | 2015 ft | 57 kts | 290° |
| 2026-05-01 07:25 | 28.48017 | -16.33402 | 2037 ft | 103 kts | 290° |
| 2026-05-01 07:25 | 28.48298 | -16.34252 | 2215 ft | 119 kts | 290° |
| 2026-05-01 07:25 | 28.48626 | -16.35157 | 2557 ft | 130 kts | 291° |
| 2026-05-01 07:26 | 28.48969 | -16.36145 | 2957 ft | 135 kts | 290° |
| 2026-05-01 07:26 | 28.49287 | -16.37207 | 3145 ft | 154 kts | 285° |
| 2026-05-01 07:26 | 28.49605 | -16.38419 | 3319 ft | 161 kts | 288° |
| 2026-05-01 07:26 | 28.49977 | -16.39622 | 3600 ft | 161 kts | 290° |
| 2026-05-01 07:27 | 28.50378 | -16.40818 | 3877 ft | 162 kts | 291° |
| 2026-05-01 07:27 | 28.50792 | -16.42010 | 4150 ft | 162 kts | 291° |
| 2026-05-01 07:27 | 28.51207 | -16.43207 | 4416 ft | 163 kts | 291° |
| 2026-05-01 07:27 | 28.51618 | -16.44409 | 4679 ft | 163 kts | 291° |
| 2026-05-01 07:28 | 28.52022 | -16.45602 | 4944 ft | 164 kts | 289° |
| 2026-05-01 07:28 | 28.52115 | -16.46870 | 5153 ft | 163 kts | 261° |
| 2026-05-01 07:28 | 28.51960 | -16.48214 | 5152 ft | 180 kts | 263° |
| 2026-05-01 07:28 | 28.51812 | -16.49662 | 5278 ft | 185 kts | 263° |
| 2026-05-01 07:29 | 28.51674 | -16.51119 | 5498 ft | 185 kts | 263° |
| 2026-05-01 07:29 | 28.51541 | -16.52577 | 5714 ft | 185 kts | 263° |
| 2026-05-01 07:29 | 28.51411 | -16.54039 | 5935 ft | 186 kts | 263° |
| 2026-05-01 07:29 | 28.51286 | -16.55488 | 6151 ft | 186 kts | 263° |
| 2026-05-01 07:30 | 28.51158 | -16.56952 | 6368 ft | 186 kts | 263° |
| 2026-05-01 07:30 | 28.51032 | -16.58419 | 6579 ft | 186 kts | 263° |
| 2026-05-01 07:30 | 28.50905 | -16.59887 | 6769 ft | 187 kts | 263° |
| 2026-05-01 07:30 | 28.50777 | -16.61357 | 6959 ft | 187 kts | 263° |
| 2026-05-01 07:31 | 28.50650 | -16.62826 | 7155 ft | 187 kts | 263° |
| 2026-05-01 07:31 | 28.50267 | -16.67236 | 7731 ft | 187 kts | 263° |
| 2026-05-01 07:32 | 28.50011 | -16.70154 | 8103 ft | 187 kts | 263° |
| 2026-05-01 07:32 | 28.49884 | -16.71624 | 8287 ft | 187 kts | 263° |
| 2026-05-01 07:33 | 28.49625 | -16.74568 | 8651 ft | 187 kts | 262° |
| 2026-05-01 07:33 | 28.49497 | -16.76038 | 8829 ft | 187 kts | 262° |
| 2026-05-01 07:33 | 28.49239 | -16.78981 | 9177 ft | 187 kts | 262° |
| 2026-05-01 07:34 | 28.49111 | -16.80457 | 9360 ft | 187 kts | 262° |
| 2026-05-01 07:34 | 28.48860 | -16.83391 | 9703 ft | 188 kts | 263° |
| 2026-05-01 07:34 | 28.48582 | -16.84822 | 9837 ft | 185 kts | 240° |
| 2026-05-01 07:35 | 28.47901 | -16.86073 | 9943 ft | 187 kts | 238° |
| 2026-05-01 07:35 | 28.47197 | -16.87326 | 10060 ft | 190 kts | 237° |
| 2026-05-01 07:35 | 28.46468 | -16.88599 | 10109 ft | 195 kts | 237° |
| 2026-05-01 07:35 | 28.45710 | -16.89908 | 10132 ft | 200 kts | 237° |
| 2026-05-01 07:36 | 28.44938 | -16.91228 | 10143 ft | 207 kts | 236° |
| 2026-05-01 07:36 | 28.44115 | -16.92619 | 10149 ft | 216 kts | 236° |
| 2026-05-01 07:36 | 28.43260 | -16.94068 | 10153 ft | 224 kts | 236° |
| 2026-05-01 07:36 | 28.42381 | -16.95558 | 10151 ft | 230 kts | 236° |
| 2026-05-01 07:37 | 28.40576 | -16.98610 | 10151 ft | 237 kts | 236° |
| 2026-05-01 07:37 | 28.39645 | -17.00181 | 10148 ft | 240 kts | 236° |
| 2026-05-01 07:37 | 28.38707 | -17.01764 | 10148 ft | 242 kts | 236° |
| 2026-05-01 07:38 | 28.37761 | -17.03360 | 10153 ft | 243 kts | 236° |
| 2026-05-01 07:38 | 28.36823 | -17.04937 | 10144 ft | 244 kts | 236° |
| 2026-05-01 07:38 | 28.34920 | -17.08137 | 10146 ft | 245 kts | 236° |
| 2026-05-01 07:39 | 28.33963 | -17.09742 | 10146 ft | 245 kts | 236° |
| 2026-05-01 07:39 | 28.33007 | -17.11345 | 10141 ft | 245 kts | 236° |
| 2026-05-01 07:39 | 28.31109 | -17.14525 | 10139 ft | 245 kts | 236° |
| 2026-05-01 07:40 | 28.30151 | -17.16128 | 10141 ft | 245 kts | 236° |
| 2026-05-01 07:40 | 28.29193 | -17.17728 | 10141 ft | 245 kts | 236° |
| 2026-05-01 07:40 | 28.28234 | -17.19331 | 10138 ft | 245 kts | 236° |
| 2026-05-01 07:40 | 28.27275 | -17.20931 | 10138 ft | 245 kts | 236° |
| 2026-05-01 07:41 | 28.26329 | -17.22510 | 10138 ft | 245 kts | 236° |
| 2026-05-01 07:41 | 28.25374 | -17.24102 | 10138 ft | 244 kts | 236° |
| 2026-05-01 07:41 | 28.22964 | -17.26772 | 10134 ft | 243 kts | 221° |
| 2026-05-01 07:42 | 28.21684 | -17.28024 | 10140 ft | 243 kts | 222° |
| 2026-05-01 07:42 | 28.20406 | -17.29285 | 10139 ft | 244 kts | 222° |
| 2026-05-01 07:42 | 28.19123 | -17.30557 | 10140 ft | 245 kts | 222° |
| 2026-05-01 07:42 | 28.17837 | -17.31832 | 10143 ft | 246 kts | 222° |
| 2026-05-01 07:43 | 28.16549 | -17.33111 | 10137 ft | 247 kts | 222° |
| 2026-05-01 07:43 | 28.15266 | -17.34377 | 10132 ft | 247 kts | 222° |
| 2026-05-01 07:43 | 28.12680 | -17.36942 | 10129 ft | 247 kts | 222° |
| 2026-05-01 07:44 | 28.10094 | -17.39500 | 10132 ft | 246 kts | 222° |
| 2026-05-01 07:44 | 28.07529 | -17.42036 | 10138 ft | 246 kts | 222° |
| 2026-05-01 07:45 | 28.06237 | -17.43311 | 10134 ft | 246 kts | 222° |
| 2026-05-01 07:45 | 28.04946 | -17.44590 | 10136 ft | 246 kts | 222° |
| 2026-05-01 07:45 | 28.03656 | -17.45864 | 10137 ft | 246 kts | 222° |
| 2026-05-01 07:45 | 28.02371 | -17.47135 | 10135 ft | 246 kts | 222° |
| 2026-05-01 07:46 | 28.01098 | -17.48390 | 10139 ft | 245 kts | 222° |
| 2026-05-01 07:46 | 27.99809 | -17.49663 | 10140 ft | 246 kts | 222° |
| 2026-05-01 07:46 | 27.97227 | -17.52211 | 10141 ft | 246 kts | 222° |
| 2026-05-01 07:47 | 27.95936 | -17.53485 | 10142 ft | 246 kts | 222° |
| 2026-05-01 07:47 | 27.94637 | -17.54763 | 10024 ft | 251 kts | 222° |
| 2026-05-01 07:47 | 27.93286 | -17.56095 | 9663 ft | 263 kts | 222° |
| 2026-05-01 07:47 | 27.91884 | -17.57475 | 9282 ft | 268 kts | 222° |
| 2026-05-01 07:48 | 27.89095 | -17.60220 | 8543 ft | 263 kts | 221° |
| 2026-05-01 07:48 | 27.87717 | -17.61576 | 8177 ft | 262 kts | 221° |
| 2026-05-01 07:48 | 27.86349 | -17.62924 | 7825 ft | 260 kts | 221° |
| 2026-05-01 07:49 | 27.85003 | -17.64244 | 7461 ft | 259 kts | 221° |
| 2026-05-01 07:49 | 27.82289 | -17.66911 | 6791 ft | 257 kts | 220° |
| 2026-05-01 07:49 | 27.80939 | -17.68238 | 6444 ft | 257 kts | 220° |
| 2026-05-01 07:50 | 27.79586 | -17.69565 | 6075 ft | 257 kts | 220° |
| 2026-05-01 07:50 | 27.76903 | -17.72196 | 5346 ft | 257 kts | 221° |
| 2026-05-01 07:50 | 27.75568 | -17.73509 | 4983 ft | 242 kts | 221° |
| 2026-05-01 07:51 | 27.74365 | -17.74688 | 4637 ft | 217 kts | 221° |
| 2026-05-01 07:51 | 27.73251 | -17.75777 | 4334 ft | 214 kts | 221° |
| 2026-05-01 07:51 | 27.72085 | -17.76874 | 4021 ft | 220 kts | 216° |
| 2026-05-01 07:52 | 27.69542 | -17.78706 | 3324 ft | 224 kts | 238° |
| 2026-05-01 07:52 | 27.68964 | -17.80238 | 2984 ft | 201 kts | 264° |
| 2026-05-01 07:52 | 27.69300 | -17.81664 | 2713 ft | 184 kts | 309° |
| 2026-05-01 07:53 | 27.71589 | -17.82899 | 2195 ft | 179 kts | 341° |
| 2026-05-01 07:53 | 27.72721 | -17.83365 | 1964 ft | 170 kts | 339° |
| 2026-05-01 07:53 | 27.73802 | -17.83870 | 1727 ft | 171 kts | 336° |
| 2026-05-01 07:53 | 27.74905 | -17.84451 | 1481 ft | 175 kts | 334° |
| 2026-05-01 07:54 | 27.76833 | -17.85651 | 1030 ft | 142 kts | 327° |
| 2026-05-01 07:55 | 27.79197 | -17.87358 | 552 ft | 127 kts | 330° |
| 2026-05-01 07:55 | 27.80828 | -17.88320 | 156 ft | 129 kts | 332° |
| 2026-05-01 07:56 | 27.81958 | -17.89009 | 70 ft | 5 kts | 1° |
| 2026-05-01 07:56 | 27.81892 | -17.88942 | 74 ft | 21 kts | 153° |
| 2026-05-01 07:57 | 27.81725 | -17.88845 | 85 ft | 29 kts | 153° |
| 2026-05-01 07:57 | 27.81470 | -17.88696 | 95 ft | 16 kts | 152° |
| 2026-05-01 07:58 | 27.81353 | -17.88626 | 96 ft | 15 kts | 152° |
| 2026-05-01 07:58 | 27.81314 | -17.88522 | 95 ft | 7 kts | 24° |
| 2026-05-01 07:59 | 27.81342 | -17.88532 | 99 ft | 0 kts | 332° |